Time;durP1;ratioP1;P1;durP2;ratioP2;P2;SDS_P1;SDS_P2;PMS_P1;PMS_P2;Temp;Humidity;BMP_temperature;BMP_pressure;BME280_temperature;BME280_humidity;BME280_pressure;Samples;Min_cycle;Max_cycle;Signal;HPM_P1;HPM_P2
2021/01/21 00:02:07;;;;;;;4.67;2.60;;;;;;;8.07;43.98;95215.09;5050513;28;20171;-67
2021/01/21 00:04:32;;;;;;;3.40;2.50;;;;;;;8.00;43.70;95220.22;5051458;28;20240;-67
2021/01/21 00:06:58;;;;;;;4.50;2.90;;;;;;;8.05;43.66;95222.28;5059808;28;20721;-68
2021/01/21 00:09:24;;;;;;;2.90;2.30;;;;;;;8.11;43.30;95222.34;5052050;28;20175;-68
2021/01/21 00:11:49;;;;;;;5.40;2.40;;;;;;;8.14;43.11;95226.38;5049899;28;20180;-68
2021/01/21 00:14:15;;;;;;;4.43;2.67;;;;;;;7.99;43.36;95229.88;5051659;28;20254;-68
2021/01/21 00:16:41;;;;;;;4.63;2.47;;;;;;;8.10;43.53;95239.00;5051757;28;20546;-67
2021/01/21 00:19:06;;;;;;;3.03;2.70;;;;;;;8.06;42.88;95253.41;5051340;28;20270;-68
2021/01/21 00:21:32;;;;;;;4.17;2.50;;;;;;;8.31;42.86;95245.25;5050850;28;20175;-68
2021/01/21 00:23:58;;;;;;;2.90;2.50;;;;;;;8.40;42.38;95233.69;5050692;28;20753;-68
2021/01/21 00:26:27;;;;;;;2.50;2.30;;;;;;;8.36;42.44;95234.25;5051457;28;20209;-68
2021/01/21 00:28:53;;;;;;;2.73;2.03;;;;;;;8.28;42.46;95237.78;5057492;28;20194;-67
2021/01/21 00:31:19;;;;;;;3.60;2.27;;;;;;;8.54;41.84;95236.44;5044643;28;20445;-68
2021/01/21 00:33:45;;;;;;;3.53;2.33;;;;;;;8.58;41.82;95238.47;5051062;28;20837;-67
2021/01/21 00:36:12;;;;;;;5.73;2.70;;;;;;;8.17;42.80;95230.44;5050056;28;20638;-67
2021/01/21 00:38:38;;;;;;;2.70;2.00;;;;;;;8.54;41.93;95216.34;5051136;28;20171;-66
2021/01/21 00:41:04;;;;;;;2.50;1.90;;;;;;;8.45;41.94;95226.06;5050709;28;20421;-68
2021/01/21 00:43:30;;;;;;;3.00;1.93;;;;;;;8.48;41.52;95226.72;5057592;28;20213;-67
2021/01/21 00:45:56;;;;;;;2.70;2.00;;;;;;;8.63;41.35;95232.69;5066386;28;20255;-66
2021/01/21 00:48:22;;;;;;;3.57;2.30;;;;;;;8.69;41.71;95221.50;5051031;28;20554;-68
2021/01/21 00:50:48;;;;;;;4.30;2.37;;;;;;;8.63;41.04;95224.88;5050800;28;20913;-67
2021/01/21 00:53:14;;;;;;;2.40;2.20;;;;;;;8.66;41.44;95208.81;5051081;28;20429;-67
2021/01/21 00:55:40;;;;;;;3.60;1.87;;;;;;;8.82;41.02;95218.19;5050187;28;20175;-68
2021/01/21 00:58:05;;;;;;;2.20;2.00;;;;;;;8.70;40.99;95220.50;5050559;28;20482;-68
2021/01/21 01:00:31;;;;;;;3.40;2.43;;;;;;;8.66;40.55;95208.81;5044021;28;20244;-67
2021/01/21 01:02:57;;;;;;;3.60;2.33;;;;;;;8.93;40.60;95209.03;5049683;28;20199;-67
2021/01/21 01:05:22;;;;;;;5.47;2.27;;;;;;;8.93;40.35;95197.75;5051452;28;20203;-68
2021/01/21 01:07:48;;;;;;;4.27;2.10;;;;;;;8.88;39.77;95198.31;5050029;28;20203;-68
2021/01/21 01:10:14;;;;;;;1.70;1.60;;;;;;;8.97;40.33;95193.75;5051062;28;20183;-68
2021/01/21 01:12:40;;;;;;;2.37;2.13;;;;;;;8.96;40.34;95206.00;5050599;28;20183;-67
2021/01/21 01:15:07;;;;;;;2.60;2.00;;;;;;;8.94;40.05;95194.97;5050329;28;20229;-68
2021/01/21 01:17:33;;;;;;;3.83;1.83;;;;;;;8.96;40.31;95203.41;5032476;28;20202;-67
2021/01/21 01:19:59;;;;;;;1.73;1.60;;;;;;;9.00;40.05;95199.41;5050401;28;20437;-67
2021/01/21 01:22:24;;;;;;;2.83;1.87;;;;;;;8.78;40.24;95203.09;5051373;28;20528;-68
2021/01/21 01:24:50;;;;;;;1.47;1.37;;;;;;;8.72;40.08;95192.38;5054278;28;20203;-67
2021/01/21 01:27:16;;;;;;;1.70;1.57;;;;;;;8.86;39.86;95182.03;5054813;28;20182;-67
2021/01/21 01:29:44;;;;;;;2.53;1.67;;;;;;;8.93;39.44;95185.50;5047951;28;20489;-68
2021/01/21 01:32:10;;;;;;;3.30;1.53;;;;;;;9.17;38.94;95193.88;5054412;28;20176;-68
2021/01/21 01:34:37;;;;;;;2.17;1.80;;;;;;;9.18;38.61;95172.78;5054525;28;20950;-67
2021/01/21 01:37:03;;;;;;;1.80;1.23;;;;;;;9.37;38.84;95186.16;5053655;28;20198;-67
2021/01/21 01:39:29;;;;;;;2.33;1.53;;;;;;;9.12;39.37;95189.25;5053568;28;20426;-67
2021/01/21 01:41:54;;;;;;;3.20;1.60;;;;;;;9.32;39.52;95173.66;5054197;28;20420;-69
2021/01/21 01:44:20;;;;;;;2.17;1.40;;;;;;;9.07;39.62;95176.72;5054052;28;20740;-69
2021/01/21 01:46:46;;;;;;;2.47;1.67;;;;;;;9.17;39.30;95178.22;5053905;28;20265;-67
2021/01/21 01:49:11;;;;;;;2.43;1.67;;;;;;;9.35;38.90;95181.09;5053417;28;20658;-68
2021/01/21 01:51:38;;;;;;;1.70;1.57;;;;;;;9.10;39.35;95183.41;5036527;28;20175;-67
2021/01/21 01:54:04;;;;;;;2.13;1.60;;;;;;;9.38;39.43;95175.50;5053201;28;20234;-66
2021/01/21 01:56:30;;;;;;;3.77;1.80;;;;;;;9.18;39.46;95172.00;5054165;28;20484;-67
2021/01/21 01:58:57;;;;;;;3.03;1.60;;;;;;;9.29;39.45;95166.22;5052449;28;20496;-68
2021/01/21 02:01:23;;;;;;;2.00;1.70;;;;;;;9.30;39.25;95173.06;5046294;28;20508;-67
2021/01/21 02:03:49;;;;;;;1.77;1.57;;;;;;;9.16;38.64;95161.72;5054124;28;20445;-67
2021/01/21 02:06:15;;;;;;;3.03;1.93;;;;;;;9.30;39.75;95165.22;5054078;28;20455;-67
2021/01/21 02:08:41;;;;;;;1.90;1.40;;;;;;;9.18;39.76;95159.72;5054230;28;20437;-67
2021/01/21 02:11:18;;;;;;;1.70;1.60;;;;;;;9.25;39.78;95161.56;5054075;28;20417;-67
2021/01/21 02:14:01;;;;;;;1.97;1.50;;;;;;;9.25;39.32;95153.72;5052296;28;20927;-66
2021/01/21 02:17:09;;;;;;;2.00;1.40;;;;;;;9.37;38.61;95137.28;5053324;28;20409;-69
2021/01/21 02:20:10;;;;;;;2.27;1.30;;;;;;;9.43;38.43;95145.34;5052848;28;20421;-69
2021/01/21 02:22:51;;;;;;;4.57;1.50;;;;;;;9.40;38.54;95135.28;5053872;28;20414;-67
2021/01/21 02:25:21;;;;;;;3.13;1.60;;;;;;;9.45;38.58;95131.06;5053412;28;20453;-68
2021/01/21 02:28:07;;;;;;;4.33;1.60;;;;;;;9.46;38.48;95145.75;5051944;28;20414;-67
2021/01/21 02:30:51;;;;;;;3.40;1.70;;;;;;;9.74;38.16;95146.66;5045705;28;20402;-67
2021/01/21 02:33:40;;;;;;;3.43;1.60;;;;;;;9.71;38.29;95139.19;5047652;28;20444;-67
2021/01/21 02:36:06;;;;;;;1.43;1.33;;;;;;;9.57;38.47;95143.59;5052301;28;20777;-68
2021/01/21 02:38:33;;;;;;;1.90;1.57;;;;;;;9.64;38.60;95137.38;5059987;28;20857;-66
2021/01/21 02:40:59;;;;;;;5.17;1.57;;;;;;;9.40;39.06;95138.69;5052390;28;20448;-67
2021/01/21 02:43:25;;;;;;;3.00;1.40;;;;;;;9.43;39.19;95137.50;5052775;28;20452;-68
2021/01/21 02:45:50;;;;;;;4.27;1.77;;;;;;;9.49;39.46;95124.47;5053315;28;20853;-67
2021/01/21 02:48:16;;;;;;;2.47;1.40;;;;;;;9.61;38.89;95116.06;5053306;28;20214;-67
2021/01/21 02:50:42;;;;;;;1.70;1.40;;;;;;;9.64;38.35;95119.06;5052527;28;20205;-66
2021/01/21 02:53:08;;;;;;;4.27;1.40;;;;;;;9.71;38.66;95126.09;5053287;28;20429;-68
2021/01/21 02:55:53;;;;;;;2.50;1.50;;;;;;;9.72;37.99;95138.19;5052238;28;20496;-67
2021/01/21 02:58:35;;;;;;;1.40;1.20;;;;;;;9.68;38.37;95143.84;5052782;28;20485;-68
2021/01/21 03:01:02;;;;;;;3.53;1.47;;;;;;;9.60;38.59;95146.59;5045410;28;20992;-67
2021/01/21 03:03:29;;;;;;;1.50;1.30;;;;;;;9.44;38.45;95139.13;5052941;28;20784;-67
2021/01/21 03:06:00;;;;;;;6.73;1.70;;;;;;;9.83;38.01;95142.84;5054725;28;20944;-68
2021/01/21 03:08:27;;;;;;;3.27;1.97;;;;;;;9.70;38.04;95119.28;5060670;28;20923;-69
2021/01/21 03:11:09;;;;;;;2.70;1.50;;;;;;;9.73;37.98;95117.09;5053106;28;20908;-69
2021/01/21 03:13:37;;;;;;;4.13;1.40;;;;;;;9.73;37.58;95106.63;5055850;28;20442;-68
2021/01/21 03:16:03;;;;;;;2.40;1.50;;;;;;;9.68;37.81;95104.59;5054003;28;21775;-66
2021/01/21 03:18:29;;;;;;;4.50;1.60;;;;;;;9.62;37.94;95110.59;5054179;28;20428;-68
2021/01/21 03:20:55;;;;;;;2.90;1.60;;;;;;;9.79;37.84;95123.34;5054814;28;20777;-68
2021/01/21 03:23:20;;;;;;;1.50;1.40;;;;;;;9.72;37.37;95115.47;5054660;28;20269;-68
2021/01/21 03:25:46;;;;;;;2.13;1.43;;;;;;;9.70;37.33;95120.09;5053973;28;20203;-68
2021/01/21 03:28:12;;;;;;;1.10;1.00;;;;;;;9.64;37.60;95116.44;5051685;28;20643;-68
2021/01/21 03:30:38;;;;;;;3.33;1.30;;;;;;;9.57;37.84;95115.63;5053171;28;20725;-67
2021/01/21 03:33:04;;;;;;;1.70;1.20;;;;;;;9.61;38.09;95116.06;5054398;28;20186;-67
2021/01/21 03:35:29;;;;;;;1.67;1.50;;;;;;;9.66;38.04;95124.09;5036185;28;20921;-68
2021/01/21 03:37:55;;;;;;;1.20;1.10;;;;;;;9.32;38.64;95121.38;5052213;28;20179;-68
2021/01/21 03:40:21;;;;;;;3.07;1.40;;;;;;;9.47;38.42;95118.63;5036064;28;20182;-67
2021/01/21 03:42:46;;;;;;;1.43;1.33;;;;;;;9.65;38.39;95110.22;5009365;28;20191;-68
2021/01/21 03:45:13;;;;;;;4.50;1.50;;;;;;;9.62;38.27;95102.75;5050770;28;20325;-68
2021/01/21 03:47:39;;;;;;;3.23;1.40;;;;;;;9.62;38.06;95108.00;5050872;28;20567;-68
2021/01/21 03:50:06;;;;;;;1.80;1.53;;;;;;;9.80;38.27;95104.03;5050355;28;20446;-67
2021/01/21 03:52:31;;;;;;;2.70;1.70;;;;;;;9.68;38.17;95099.38;5051903;28;20179;-67
2021/01/21 03:54:57;;;;;;;2.07;1.60;;;;;;;9.59;38.14;95084.06;5050655;28;20429;-69
2021/01/21 03:57:23;;;;;;;1.73;1.37;;;;;;;9.58;38.52;95091.06;5051684;28;20175;-67
2021/01/21 03:59:48;;;;;;;5.17;1.27;;;;;;;9.73;38.32;95090.09;5044339;28;20179;-68
2021/01/21 04:02:14;;;;;;;2.07;1.40;;;;;;;9.54;38.57;95092.50;5051471;28;20237;-69
2021/01/21 04:04:40;;;;;;;2.37;1.43;;;;;;;9.56;38.67;95087.88;5050995;28;20618;-69
2021/01/21 04:07:05;;;;;;;1.70;1.50;;;;;;;9.86;38.29;95092.75;5049522;28;20218;-68
2021/01/21 04:09:31;;;;;;;4.00;1.20;;;;;;;9.81;37.78;95089.94;5051438;28;20179;-67
2021/01/21 04:11:57;;;;;;;2.03;1.60;;;;;;;9.94;37.91;95083.91;5051414;28;20171;-68
2021/01/21 04:14:23;;;;;;;3.20;1.47;;;;;;;9.64;38.83;95090.31;5058187;28;20603;-68
2021/01/21 04:16:48;;;;;;;2.90;1.27;;;;;;;9.78;38.37;95092.94;5051037;28;20572;-68
2021/01/21 04:19:14;;;;;;;2.30;1.37;;;;;;;9.65;38.46;95102.38;5051627;28;20179;-66
2021/01/21 04:21:40;;;;;;;5.17;1.50;;;;;;;9.75;38.74;95095.94;5050517;28;20175;-68
2021/01/21 04:24:06;;;;;;;2.13;1.13;;;;;;;9.66;38.29;95082.25;5050182;28;20191;-68
2021/01/21 04:26:31;;;;;;;4.90;1.30;;;;;;;9.58;38.46;95085.06;5054425;28;20202;-68
2021/01/21 04:28:57;;;;;;;6.30;1.20;;;;;;;9.50;38.47;95099.94;5050583;28;20513;-67
2021/01/21 04:31:23;;;;;;;1.57;1.30;;;;;;;9.68;38.50;95096.75;5037171;28;20180;-68
2021/01/21 04:33:49;;;;;;;3.13;1.30;;;;;;;9.72;38.54;95109.41;5047161;28;20195;-68
2021/01/21 04:36:14;;;;;;;4.00;1.40;;;;;;;9.86;38.26;95105.03;5050329;28;20171;-67
2021/01/21 04:38:41;;;;;;;2.10;1.30;;;;;;;9.61;38.49;95105.59;5051098;28;20182;-68
2021/01/21 04:41:06;;;;;;;3.30;1.37;;;;;;;9.74;38.22;95110.03;5049924;28;20244;-68
2021/01/21 04:43:32;;;;;;;5.87;1.37;;;;;;;9.78;38.04;95106.03;5049752;28;20824;-66
2021/01/21 04:45:58;;;;;;;2.70;1.33;;;;;;;9.81;38.38;95110.88;5049184;28;20199;-68
2021/01/21 04:48:25;;;;;;;1.10;0.97;;;;;;;9.88;38.34;95106.44;5050901;28;20316;-68
2021/01/21 04:50:51;;;;;;;1.60;1.23;;;;;;;9.89;37.63;95094.97;5048954;28;20497;-68
2021/01/21 04:53:19;;;;;;;1.60;1.10;;;;;;;9.89;37.85;95100.19;5050441;28;20528;-68
2021/01/21 04:55:55;;;;;;;1.23;1.13;;;;;;;9.73;38.39;95104.00;5048192;28;20505;-68
2021/01/21 04:58:33;;;;;;;1.27;1.10;;;;;;;9.72;38.17;95112.84;5050201;28;20962;-67
2021/01/21 05:01:00;;;;;;;3.53;1.40;;;;;;;9.94;37.97;95116.13;5042882;28;20508;-67
2021/01/21 05:03:26;;;;;;;2.67;1.23;;;;;;;9.98;38.32;95112.06;5043880;28;20525;-68
2021/01/21 05:05:53;;;;;;;5.53;1.33;;;;;;;9.87;37.72;95112.66;5048608;28;20445;-68
2021/01/21 05:08:19;;;;;;;2.20;1.63;;;;;;;10.01;38.01;95110.91;5049406;28;20499;-67
2021/01/21 05:10:45;;;;;;;2.47;1.30;;;;;;;9.92;38.31;95110.28;5050414;28;20430;-65
2021/01/21 05:13:11;;;;;;;1.60;1.40;;;;;;;9.92;38.24;95102.44;5048729;28;20432;-68
2021/01/21 05:15:36;;;;;;;3.00;1.30;;;;;;;10.02;37.71;95104.63;5049774;28;20473;-68
2021/01/21 05:18:02;;;;;;;1.80;1.20;;;;;;;9.97;38.01;95109.69;5049121;28;20252;-67
2021/01/21 05:20:28;;;;;;;3.10;1.40;;;;;;;10.02;37.94;95106.44;5050372;28;20266;-68
2021/01/21 05:23:01;;;;;;;2.63;1.30;;;;;;;10.09;37.73;95091.56;5049845;28;20490;-67
2021/01/21 05:25:27;;;;;;;10.20;1.20;;;;;;;9.99;37.67;95095.38;5050343;28;20203;-68
2021/01/21 05:27:54;;;;;;;1.80;1.10;;;;;;;10.03;38.02;95087.94;5050149;28;20432;-67
2021/01/21 05:30:20;;;;;;;1.30;1.20;;;;;;;10.14;37.37;95089.16;5049007;28;20409;-67
2021/01/21 05:32:46;;;;;;;4.20;1.90;;;;;;;9.97;38.00;95097.38;5045186;28;20414;-68
2021/01/21 05:35:14;;;;;;;6.87;1.40;;;;;;;10.13;37.72;95100.63;5047421;28;20483;-68
2021/01/21 05:37:40;;;;;;;2.70;1.37;;;;;;;10.14;37.57;95099.63;5049985;28;20265;-66
2021/01/21 05:40:08;;;;;;;4.20;1.50;;;;;;;10.28;37.39;95105.66;5050201;28;20429;-68
2021/01/21 05:42:40;;;;;;;2.70;1.33;;;;;;;10.26;37.63;95095.38;5048730;28;20528;-68
2021/01/21 05:45:06;;;;;;;1.60;1.30;;;;;;;10.17;37.25;95098.41;5049584;28;20445;-67
2021/01/21 05:47:32;;;;;;;4.43;1.20;;;;;;;10.38;37.08;95089.56;5049880;28;20566;-66
2021/01/21 05:50:00;;;;;;;2.40;1.23;;;;;;;10.32;37.12;95098.22;5050359;28;20916;-67
2021/01/21 05:52:26;;;;;;;1.70;1.10;;;;;;;10.10;37.28;95098.41;5049560;28;20414;-67
2021/01/21 05:54:52;;;;;;;4.50;0.97;;;;;;;10.37;37.34;95101.03;5047460;28;21025;-67
2021/01/21 05:57:18;;;;;;;2.77;1.10;;;;;;;10.30;37.42;95099.22;5050230;28;20175;-67
2021/01/21 05:59:46;;;;;;;2.33;1.20;;;;;;;10.49;36.98;95102.03;5049811;28;20934;-67
2021/01/21 06:02:12;;;;;;;2.50;1.27;;;;;;;10.25;37.66;95106.88;5045882;28;20449;-68
2021/01/21 06:04:40;;;;;;;6.90;1.47;;;;;;;10.29;37.54;95097.63;5048260;28;20464;-66
2021/01/21 06:07:06;;;;;;;4.53;1.50;;;;;;;10.20;37.78;95093.59;5049841;28;20183;-68
2021/01/21 06:09:32;;;;;;;2.37;1.13;;;;;;;10.33;37.43;95097.22;5050563;28;20494;-67
2021/01/21 06:11:59;;;;;;;3.63;1.40;;;;;;;10.16;37.82;95102.84;5052551;28;20175;-67
2021/01/21 06:14:24;;;;;;;1.77;1.23;;;;;;;10.06;37.85;95103.22;5053631;28;20490;-68
2021/01/21 06:16:51;;;;;;;2.10;1.20;;;;;;;9.95;37.94;95106.44;5053085;28;20425;-68
2021/01/21 06:19:17;;;;;;;1.37;1.00;;;;;;;9.94;37.84;95103.03;5053811;28;20179;-67
2021/01/21 06:21:56;;;;;;;2.07;1.20;;;;;;;10.05;37.89;95095.59;5053999;28;20448;-67
2021/01/21 06:24:29;;;;;;;3.10;1.20;;;;;;;10.04;37.58;95093.97;5058535;28;20194;-66
2021/01/21 06:26:58;;;;;;;3.37;1.30;;;;;;;10.02;37.78;95096.78;5070039;28;20424;-70
2021/01/21 06:29:26;;;;;;;3.50;1.43;;;;;;;10.34;37.03;95093.56;5058344;28;20427;-68
2021/01/21 06:31:53;;;;;;;2.33;1.13;;;;;;;10.19;37.35;95099.84;5046855;28;20569;-68
2021/01/21 06:34:24;;;;;;;3.03;1.20;;;;;;;10.27;37.40;95104.84;5054044;28;20846;-69
2021/01/21 06:36:52;;;;;;;1.10;0.90;;;;;;;10.23;36.97;95093.16;5056913;28;20421;-67
2021/01/21 06:39:28;;;;;;;8.90;1.20;;;;;;;10.39;37.10;95096.41;5060851;28;20479;-68
2021/01/21 06:41:56;;;;;;;3.27;1.53;;;;;;;10.47;37.14;95101.44;5057461;28;20948;-68
2021/01/21 06:44:22;;;;;;;1.60;1.30;;;;;;;10.35;37.12;95096.00;5053049;28;20438;-67
2021/01/21 06:46:49;;;;;;;1.10;1.00;;;;;;;10.18;37.43;95108.69;5052118;28;20541;-67
2021/01/21 06:49:16;;;;;;;1.50;1.30;;;;;;;10.34;37.14;95115.31;5059480;28;20183;-67
2021/01/21 06:51:47;;;;;;;2.10;1.60;;;;;;;10.45;37.14;95116.56;5052294;28;20413;-68
2021/01/21 06:54:13;;;;;;;2.90;1.40;;;;;;;10.55;37.61;95111.72;5053752;28;20446;-68
2021/01/21 06:56:39;;;;;;;2.00;1.23;;;;;;;10.52;37.83;95100.84;5052352;28;20850;-68
2021/01/21 06:59:04;;;;;;;1.80;1.30;;;;;;;10.55;37.91;95103.88;5051705;28;20418;-69
2021/01/21 07:01:30;;;;;;;1.30;1.20;;;;;;;10.87;37.64;95096.13;5053303;28;20262;-67
2021/01/21 07:04:21;;;;;;;2.90;1.27;;;;;;;10.51;39.35;95084.31;5060059;28;20681;-67
2021/01/21 07:06:49;;;;;;;3.20;1.10;;;;;;;10.66;39.69;95091.16;5051184;28;20188;-66
2021/01/21 07:09:18;;;;;;;1.30;1.20;;;;;;;10.52;40.77;95095.63;5051773;28;20570;-68
2021/01/21 07:11:44;;;;;;;1.90;1.40;;;;;;;10.47;41.66;95090.97;5015812;28;20422;-67
2021/01/21 07:14:10;;;;;;;3.00;1.60;;;;;;;10.50;42.03;95095.81;5002070;28;20437;-67
2021/01/21 07:16:37;;;;;;;1.20;1.10;;;;;;;10.64;42.60;95082.69;5051345;28;20449;-67
2021/01/21 07:19:03;;;;;;;1.30;0.90;;;;;;;10.42;43.74;95086.34;5060214;28;20551;-67
2021/01/21 07:21:32;;;;;;;2.47;1.00;;;;;;;10.62;44.20;95101.25;5052241;28;20432;-69
2021/01/21 07:23:59;;;;;;;2.00;1.27;;;;;;;10.54;45.04;95097.03;5053244;28;20915;-68
2021/01/21 07:26:31;;;;;;;1.50;1.20;;;;;;;10.54;45.24;95076.06;5059791;28;20831;-68
2021/01/21 07:29:10;;;;;;;1.97;0.90;;;;;;;10.46;46.00;95081.50;5051691;28;20432;-68
2021/01/21 07:31:55;;;;;;;2.73;1.37;;;;;;;10.16;46.78;95087.13;5052851;28;20459;-67
2021/01/21 07:34:50;;;;;;;1.13;1.00;;;;;;;10.47;46.29;95096.19;5052631;28;20433;-68
2021/01/21 07:37:24;;;;;;;2.03;1.40;;;;;;;10.35;46.78;95101.22;5044962;28;20506;-68
2021/01/21 07:40:06;;;;;;;2.03;1.00;;;;;;;10.20;47.28;95093.59;5051907;28;20471;-67
2021/01/21 07:42:32;;;;;;;3.77;1.00;;;;;;;10.35;47.19;95098.63;5047554;28;20521;-67
2021/01/21 07:45:00;;;;;;;1.50;1.10;;;;;;;10.53;46.95;95086.72;5052025;28;20553;-69
2021/01/21 07:47:34;;;;;;;1.30;1.07;;;;;;;10.53;46.89;95094.59;5051592;28;20210;-68
2021/01/21 07:50:32;;;;;;;1.20;1.00;;;;;;;10.58;46.69;95100.84;5051105;28;20500;-67
2021/01/21 07:53:02;;;;;;;5.37;1.10;;;;;;;10.48;46.98;95082.09;5052473;28;20988;-68
2021/01/21 07:55:35;;;;;;;2.70;1.00;;;;;;;10.68;46.68;95089.13;5052649;28;20509;-68
2021/01/21 07:58:21;;;;;;;1.23;1.00;;;;;;;10.54;46.87;95093.56;5052043;28;20435;-67
2021/01/21 08:00:48;;;;;;;3.17;1.20;;;;;;;10.69;46.54;95088.94;5045138;28;20545;-69
2021/01/21 08:03:15;;;;;;;1.23;1.10;;;;;;;10.67;46.55;95090.94;5034568;28;20759;-69
2021/01/21 08:05:41;;;;;;;1.00;0.80;;;;;;;10.58;46.95;95090.38;5051185;28;20453;-66
2021/01/21 08:08:06;;;;;;;3.43;0.97;;;;;;;10.42;47.05;95094.19;5051553;28;20416;-68
2021/01/21 08:10:34;;;;;;;1.73;0.90;;;;;;;10.50;47.09;95090.56;5051795;28;20577;-67
2021/01/21 08:13:14;;;;;;;1.87;1.00;;;;;;;10.73;46.68;95082.28;5046604;28;20771;-67
2021/01/21 08:15:41;;;;;;;1.37;1.10;;;;;;;11.12;45.74;95089.44;5051094;28;20571;-66
2021/01/21 08:18:07;;;;;;;1.80;1.20;;;;;;;10.88;46.07;95081.25;5051548;28;20420;-66
2021/01/21 08:20:36;;;;;;;1.30;1.00;;;;;;;11.16;45.75;95075.69;5051870;28;20418;-68
2021/01/21 08:23:02;;;;;;;2.20;0.90;;;;;;;11.20;45.62;95086.56;5052328;28;20225;-66
2021/01/21 08:25:49;;;;;;;1.27;0.83;;;;;;;11.09;45.92;95090.63;5051773;28;20476;-68
2021/01/21 08:28:20;;;;;;;1.67;0.80;;;;;;;11.50;45.18;95084.19;5044751;28;20423;-72
2021/01/21 08:30:46;;;;;;;2.13;1.17;;;;;;;11.21;45.86;95088.97;5043826;28;20517;-66
2021/01/21 08:33:23;;;;;;;1.23;0.80;;;;;;;11.35;45.76;95081.88;5051239;28;20426;-67
2021/01/21 08:35:51;;;;;;;2.47;1.10;;;;;;;11.14;46.55;95092.66;5050423;28;20428;-68
2021/01/21 08:38:20;;;;;;;2.90;0.93;;;;;;;11.31;46.26;95092.97;5051426;28;20538;-68
2021/01/21 08:40:46;;;;;;;1.47;1.03;;;;;;;11.46;46.00;95090.09;5050006;28;20504;-67
2021/01/21 08:43:13;;;;;;;2.60;1.03;;;;;;;11.10;46.87;95096.69;5043762;28;20551;-68
2021/01/21 08:45:38;;;;;;;1.83;1.10;;;;;;;11.32;46.75;95094.59;5049726;28;20461;-68
2021/01/21 08:48:05;;;;;;;1.20;1.00;;;;;;;11.21;46.95;95093.41;5049671;28;20429;-68
2021/01/21 08:50:40;;;;;;;1.50;0.90;;;;;;;11.28;46.83;95099.44;5049063;28;20183;-67
2021/01/21 08:53:09;;;;;;;2.93;1.20;;;;;;;11.20;46.98;95113.59;5054418;28;20417;-67
2021/01/21 08:55:46;;;;;;;1.60;1.00;;;;;;;11.18;46.88;95114.78;5050818;28;20421;-67
2021/01/21 08:58:14;;;;;;;1.33;0.93;;;;;;;10.98;47.58;95120.91;5031854;28;20443;-69
2021/01/21 09:01:04;;;;;;;2.80;1.03;;;;;;;11.17;46.98;95116.63;5034369;28;20433;-67
2021/01/21 09:03:47;;;;;;;1.57;1.33;;;;;;;11.16;47.18;95112.41;5046139;28;20455;-66
2021/01/21 09:06:14;;;;;;;1.20;1.00;;;;;;;11.35;46.55;95105.47;5043914;28;20461;-67
2021/01/21 09:08:50;;;;;;;1.70;1.10;;;;;;;11.35;46.60;95100.22;5068317;28;20903;-66
2021/01/21 09:11:38;;;;;;;1.10;1.00;;;;;;;11.37;46.62;95111.31;5044391;28;20420;-67
2021/01/21 09:14:06;;;;;;;1.10;0.97;;;;;;;11.71;46.34;95110.34;5052960;28;20437;-66
2021/01/21 09:16:43;;;;;;;1.53;1.10;;;;;;;11.49;46.47;95114.06;5050291;28;20762;-67
2021/01/21 09:19:10;;;;;;;2.80;1.03;;;;;;;11.98;45.34;95114.44;5048626;28;20417;-67
2021/01/21 09:21:36;;;;;;;2.57;2.17;;;;;;;11.82;45.63;95114.91;5054631;28;20413;-68
2021/01/21 09:24:09;;;;;;;1.20;0.93;;;;;;;11.97;45.35;95109.38;5054194;28;20446;-68
2021/01/21 09:26:35;;;;;;;1.20;1.03;;;;;;;11.75;45.84;95114.94;5055633;28;20198;-67
2021/01/21 09:29:01;;;;;;;1.53;1.43;;;;;;;12.03;45.55;95116.44;5047471;28;20429;-67
2021/01/21 09:31:28;;;;;;;1.50;1.17;;;;;;;12.05;45.47;95121.44;5042813;28;20191;-67
2021/01/21 09:33:54;;;;;;;1.50;1.40;;;;;;;12.44;44.47;95120.38;5027677;28;20340;-68
2021/01/21 09:36:24;;;;;;;1.60;1.00;;;;;;;12.06;45.40;95123.88;5037672;28;20496;-67
2021/01/21 09:38:50;;;;;;;1.30;1.00;;;;;;;12.06;45.62;95121.25;5061068;28;20220;-68
2021/01/21 09:41:16;;;;;;;1.73;1.00;;;;;;;11.98;45.97;95124.13;5057797;28;20987;-67
2021/01/21 09:43:41;;;;;;;1.20;1.00;;;;;;;11.84;46.23;95113.66;5085873;28;20191;-67
2021/01/21 09:46:08;;;;;;;1.63;1.10;;;;;;;12.02;46.19;95114.81;5093295;28;20233;-67
2021/01/21 09:48:33;;;;;;;2.60;1.13;;;;;;;11.91;46.46;95115.47;5069465;28;20183;-67
2021/01/21 09:50:59;;;;;;;1.30;1.00;;;;;;;12.22;46.10;95113.88;5055774;28;20437;-67
2021/01/21 09:53:25;;;;;;;3.23;0.90;;;;;;;12.18;46.27;95115.31;5054910;28;20736;-66
2021/01/21 09:55:55;;;;;;;2.03;1.30;;;;;;;12.50;45.51;95116.06;5054875;28;20261;-66
2021/01/21 09:58:24;;;;;;;1.70;0.93;;;;;;;12.53;45.52;95114.84;5054374;28;20270;-67
2021/01/21 10:00:51;;;;;;;1.73;0.90;;;;;;;12.40;45.99;95113.13;5047633;28;20422;-67
2021/01/21 10:03:18;;;;;;;0.90;0.80;;;;;;;12.27;46.04;95112.22;5053653;28;20418;-67
2021/01/21 10:05:45;;;;;;;1.60;1.40;;;;;;;12.50;45.60;95118.72;5054412;28;20821;-67
2021/01/21 10:08:10;;;;;;;2.73;0.87;;;;;;;12.52;45.90;95114.03;5054585;28;20795;-67
2021/01/21 10:10:36;;;;;;;3.23;1.00;;;;;;;12.59;45.59;95122.66;5071985;28;20432;-67
2021/01/21 10:13:02;;;;;;;2.63;1.70;;;;;;;12.84;44.91;95113.16;5049830;28;20201;-67
2021/01/21 10:15:28;;;;;;;2.07;1.40;;;;;;;12.51;45.82;95122.13;5052755;28;20202;-67
2021/01/21 10:17:53;;;;;;;1.00;0.80;;;;;;;12.88;45.10;95117.75;5053951;28;20266;-67
2021/01/21 10:20:19;;;;;;;2.00;1.07;;;;;;;13.00;44.59;95117.03;5062269;28;20215;-65
2021/01/21 10:22:45;;;;;;;1.83;1.00;;;;;;;12.55;45.97;95125.94;5053338;28;20214;-69
2021/01/21 10:25:11;;;;;;;6.07;0.90;;;;;;;12.87;45.18;95110.88;5060401;28;20245;-67
2021/01/21 10:27:37;;;;;;;2.07;0.83;;;;;;;13.15;44.38;95111.41;5054147;28;20582;-67
2021/01/21 10:30:04;;;;;;;1.53;1.10;;;;;;;13.30;44.57;95114.47;5055890;28;20426;-67
2021/01/21 10:32:31;;;;;;;3.83;0.93;;;;;;;13.16;44.72;95118.25;5054157;28;20260;-68
2021/01/21 10:34:57;;;;;;;1.70;1.10;;;;;;;13.04;44.99;95116.38;5055136;28;20481;-68
2021/01/21 10:37:23;;;;;;;1.73;1.13;;;;;;;12.97;45.23;95126.16;5068864;28;20457;-68
2021/01/21 10:39:48;;;;;;;1.43;1.10;;;;;;;12.98;45.22;95126.94;5057597;28;20237;-67
2021/01/21 10:42:14;;;;;;;1.30;0.93;;;;;;;12.70;46.08;95134.28;5048527;28;20421;-67
2021/01/21 10:44:40;;;;;;;1.20;1.00;;;;;;;13.40;44.82;95139.47;5053571;28;20203;-67
2021/01/21 10:47:05;;;;;;;1.43;1.10;;;;;;;13.17;45.05;95130.38;5053601;28;20183;-67
2021/01/21 10:49:31;;;;;;;2.60;1.17;;;;;;;13.10;46.10;95134.94;5053410;28;20195;-67
2021/01/21 10:51:58;;;;;;;2.63;1.00;;;;;;;13.10;47.50;95137.56;5071256;28;20182;-67
2021/01/21 10:54:24;;;;;;;1.30;1.20;;;;;;;12.71;48.05;95142.97;5058893;28;20207;-67
2021/01/21 10:56:54;;;;;;;1.87;1.37;;;;;;;12.93;49.28;95151.25;5052827;28;20449;-67
2021/01/21 10:59:19;;;;;;;1.20;1.00;;;;;;;12.84;49.17;95147.31;5049433;28;20266;-66
2021/01/21 11:01:45;;;;;;;2.50;1.10;;;;;;;13.15;48.36;95154.28;5058185;28;20554;-66
2021/01/21 11:04:11;;;;;;;1.27;1.17;;;;;;;12.75;49.37;95154.66;5058051;28;20218;-68
2021/01/21 11:06:36;;;;;;;6.10;1.47;;;;;;;12.54;49.58;95161.09;5053079;28;20207;-66
2021/01/21 11:09:02;;;;;;;2.00;1.80;;;;;;;12.91;48.49;95153.31;5052982;28;20249;-66
2021/01/21 11:11:28;;;;;;;4.10;1.20;;;;;;;12.78;48.61;95150.78;5050509;28;20184;-67
2021/01/21 11:13:54;;;;;;;1.57;1.47;;;;;;;13.15;48.89;95153.47;5050800;28;20719;-67
2021/01/21 11:16:19;;;;;;;6.30;1.77;;;;;;;13.34;48.54;95149.84;5052702;28;20614;-67
2021/01/21 11:18:45;;;;;;;3.00;2.20;;;;;;;13.48;48.03;95141.81;5052511;28;20183;-68
2021/01/21 11:21:11;;;;;;;6.93;2.80;;;;;;;13.40;47.77;95156.06;5052838;28;20186;-67
2021/01/21 11:23:36;;;;;;;5.73;2.67;;;;;;;13.35;47.61;95143.56;5053378;28;20199;-68
2021/01/21 11:26:02;;;;;;;6.90;3.87;;;;;;;13.29;47.98;95148.88;5060475;28;20237;-69
2021/01/21 11:28:28;;;;;;;3.00;1.90;;;;;;;13.40;47.38;95134.22;5035117;28;20286;-67
2021/01/21 11:30:54;;;;;;;3.37;1.57;;;;;;;13.34;47.90;95141.94;5045403;28;20636;-68
2021/01/21 11:33:19;;;;;;;3.27;2.20;;;;;;;13.40;47.42;95139.47;5052444;28;20179;-68
2021/01/21 11:35:46;;;;;;;2.77;2.10;;;;;;;13.49;46.84;95138.13;5050802;28;20175;-67
2021/01/21 11:38:13;;;;;;;1.80;1.60;;;;;;;13.57;46.46;95140.47;5052520;28;20205;-67
2021/01/21 11:40:40;;;;;;;1.80;1.17;;;;;;;13.77;45.76;95144.69;5052506;28;20422;-67
2021/01/21 11:43:07;;;;;;;4.37;1.20;;;;;;;13.64;45.40;95141.19;5047208;28;20477;-67